| time (UTC) | temp F | wind direction | speed knots | gust knots | rain 1hr in | rain 24hr in | rain mn in | humidity % | barometer mb |
| 20260906221121 | 99 | 356 | 1.7 | 4.3 | 0.00 | 0.05 | 0.05 | 42 | 1012.0 |
| 20260906220617 | 100 | 101 | 0.9 | 2.6 | 0.00 | 0.05 | 0.05 | 41 | 1012.1 |
| 20260906220112 | 99 | 181 | 3.5 | 5.2 | 0.00 | 0.05 | 0.05 | 41 | 1011.8 |
| 20260906215611 | 98 | 161 | 3.5 | 4.3 | 0.00 | 0.05 | 0.05 | 42 | 1012.1 |
| 20260906215109 | 99 | 122 | 7.0 | 7.8 | 0.00 | 0.05 | 0.05 | 42 | 1012.0 |
| 20260906214607 | 99 | 188 | 3.5 | 4.3 | 0.00 | 0.05 | 0.05 | 42 | 1012.1 |
| 20260906214103 | 100 | 128 | 4.3 | 5.2 | 0.00 | 0.05 | 0.05 | 42 | 1012.2 |
| 20260906213601 | 99 | 135 | 7.0 | 7.8 | 0.00 | 0.05 | 0.05 | 42 | 1012.2 |
| 20260906213056 | 100 | 170 | 0.0 | 0.9 | 0.00 | 0.05 | 0.05 | 41 | 1012.1 |
| 20260906212544 | 99 | 131 | 4.3 | 5.2 | 0.00 | 0.05 | 0.05 | 42 | 1012.2 |
| 20260906212040 | 99 | 11 | 0.0 | 0.9 | 0.00 | 0.05 | 0.05 | 43 | 1012.4 |
| 20260906211539 | 100 | 180 | 3.5 | 4.3 | 0.00 | 0.05 | 0.05 | 43 | 1012.5 |
| 20260906211035 | 100 | 203 | 4.3 | 6.1 | 0.00 | 0.05 | 0.05 | 41 | 1012.6 |
| 20260906210530 | 99 | 131 | 6.1 | 7.0 | 0.00 | 0.05 | 0.05 | 42 | 1012.7 |
| 20260906210030 | 100 | 205 | 2.6 | 4.3 | 0.00 | 0.05 | 0.05 | 42 | 1012.8 |
| 20260906205525 | 100 | 162 | 1.7 | 1.7 | 0.00 | 0.05 | 0.05 | 42 | 1012.9 |
| 20260906205022 | 100 | 129 | 5.2 | 7.0 | 0.00 | 0.05 | 0.05 | 42 | 1012.9 |
| 20260906204520 | 99 | 163 | 4.3 | 6.1 | 0.00 | 0.05 | 0.05 | 42 | 1012.9 |
| 20260906204015 | 99 | 176 | 2.6 | 2.6 | 0.00 | 0.05 | 0.05 | 43 | 1013.1 |
| 20260906203510 | 100 | 146 | 4.3 | 6.1 | 0.00 | 0.05 | 0.05 | 43 | 1013.0 |
| 20260906203009 | 99 | 106 | 0.9 | 1.7 | 0.00 | 0.05 | 0.05 | 43 | 1013.2 |
| 20260906202506 | 99 | 168 | 4.3 | 7.0 | 0.00 | 0.05 | 0.05 | 41 | 1013.2 |
| 20260906202001 | 99 | 121 | 5.2 | 7.0 | 0.00 | 0.05 | 0.05 | 42 | 1013.3 |
| 20260906201455 | 100 | 126 | 0.0 | 0.9 | 0.00 | 0.05 | 0.05 | 42 | 1013.0 |
| 20260906200950 | 100 | 163 | 4.3 | 6.1 | 0.00 | 0.05 | 0.05 | 42 | 1013.1 |
| 20260906200447 | 99 | 161 | 2.6 | 5.2 | 0.00 | 0.05 | 0.05 | 42 | 1013.4 |
| 20260906195946 | 99 | 143 | 6.1 | 7.8 | 0.00 | 0.05 | 0.05 | 42 | 1013.5 |
| 20260906195443 | 99 | 113 | 0.9 | 4.3 | 0.00 | 0.05 | 0.05 | 44 | 1013.4 |
| 20260906194939 | 98 | 166 | 5.2 | 6.1 | 0.00 | 0.05 | 0.05 | 42 | 1013.5 |
| 20260906194434 | 99 | 111 | 3.5 | 4.3 | 0.00 | 0.05 | 0.05 | 42 | 1013.8 |
| 20260906193929 | 98 | 136 | 2.6 | 4.3 | 0.00 | 0.05 | 0.05 | 43 | 1013.7 |
| 20260906193424 | 99 | 150 | 4.3 | 7.8 | 0.00 | 0.05 | 0.05 | 41 | 1013.5 |
| 20260906192920 | 99 | 127 | 5.2 | 6.1 | 0.00 | 0.05 | 0.05 | 42 | 1013.7 |
| 20260906192420 | 99 | 125 | 4.3 | 6.1 | 0.00 | 0.05 | 0.05 | 41 | 1013.7 |
| 20260906191919 | 98 | 107 | 1.7 | 2.6 | 0.00 | 0.05 | 0.05 | 44 | 1013.9 |
| 20260906191415 | 98 | 99 | 7.0 | 11.3 | 0.00 | 0.05 | 0.05 | 43 | 1013.9 |
| 20260906190913 | 99 | 145 | 3.5 | 4.3 | 0.00 | 0.05 | 0.05 | 44 | 1014.0 |
| 20260906190412 | 98 | 124 | 5.2 | 7.0 | 0.00 | 0.05 | 0.05 | 45 | 1013.9 |
| 20260906185908 | 98 | 151 | 5.2 | 7.8 | 0.00 | 0.05 | 0.05 | 45 | 1014.0 |
| 20260906185407 | 98 | 92 | 3.5 | 5.2 | 0.00 | 0.05 | 0.05 | 43 | 1014.0 |
| 20260906184901 | 98 | 170 | 2.6 | 4.3 | 0.00 | 0.05 | 0.05 | 45 | 1014.2 |
| 20260906184356 | 98 | 162 | 3.5 | 5.2 | 0.00 | 0.05 | 0.05 | 43 | 1014.2 |
| 20260906183851 | 97 | 141 | 3.5 | 4.3 | 0.00 | 0.05 | 0.05 | 46 | 1014.2 |
| 20260906183348 | 97 | 117 | 3.5 | 5.2 | 0.00 | 0.05 | 0.05 | 46 | 1014.4 |
| 20260906182847 | 98 | 122 | 5.2 | 7.0 | 0.00 | 0.05 | 0.05 | 45 | 1014.3 |
| 20260906182344 | 97 | 138 | 2.6 | 4.3 | 0.00 | 0.05 | 0.05 | 45 | 1014.3 |
| 20260906181844 | 98 | 132 | 5.2 | 7.0 | 0.00 | 0.05 | 0.05 | 45 | 1014.4 |
| 20260906181340 | 98 | 142 | 5.2 | 7.0 | 0.00 | 0.05 | 0.05 | 47 | 1014.5 |
| 20260906180836 | 97 | 102 | 3.5 | 5.2 | 0.00 | 0.05 | 0.05 | 45 | 1014.8 |
| 20260906180330 | 98 | 133 | 2.6 | 4.3 | 0.00 | 0.05 | 0.05 | 45 | 1014.8 |
| 20260906175827 | 97 | 120 | 4.3 | 5.2 | 0.00 | 0.05 | 0.05 | 46 | 1014.8 |
| 20260906175323 | 97 | 125 | 2.6 | 5.2 | 0.00 | 0.05 | 0.05 | 46 | 1014.9 |
| 20260906174822 | 96 | 132 | 4.3 | 6.1 | 0.00 | 0.05 | 0.05 | 46 | 1014.9 |
| 20260906174322 | 96 | 95 | 4.3 | 7.0 | 0.00 | 0.05 | 0.05 | 48 | 1015.0 |
| 20260906173817 | 96 | 147 | 6.1 | 7.0 | 0.00 | 0.05 | 0.05 | 46 | 1014.9 |
| 20260906173312 | 96 | 158 | 4.3 | 7.0 | 0.00 | 0.05 | 0.05 | 46 | 1015.1 |
| 20260906172811 | 95 | 144 | 6.1 | 7.8 | 0.00 | 0.05 | 0.05 | 49 | 1015.2 |
| 20260906172307 | 96 | 136 | 5.2 | 6.1 | 0.00 | 0.05 | 0.05 | 45 | 1015.3 |
| 20260906171802 | 95 | 148 | 0.0 | 0.9 | 0.00 | 0.05 | 0.05 | 50 | 1015.3 |
| 20260906171257 | 95 | 124 | 4.3 | 5.2 | 0.00 | 0.05 | 0.05 | 52 | 1015.2 |
| 20260906170753 | 95 | 131 | 2.6 | 4.3 | 0.00 | 0.05 | 0.05 | 53 | 1015.3 |
| 20260906170248 | 95 | 111 | 2.6 | 5.2 | 0.00 | 0.05 | 0.05 | 52 | 1015.3 |
| 20260906165744 | 95 | 182 | 5.2 | 7.8 | 0.00 | 0.05 | 0.05 | 52 | 1015.6 |
| 20260906165243 | 95 | 176 | 2.6 | 4.3 | 0.00 | 0.05 | 0.05 | 53 | 1015.5 |
| 20260906164743 | 95 | 133 | 1.7 | 1.7 | 0.00 | 0.05 | 0.05 | 53 | 1015.6 |
| 20260906164238 | 94 | 118 | 2.6 | 2.6 | 0.00 | 0.05 | 0.05 | 52 | 1015.7 |
| 20260906163734 | 95 | 123 | 3.5 | 5.2 | 0.00 | 0.05 | 0.05 | 51 | 1015.8 |
| 20260906163230 | 94 | 98 | 0.9 | 0.9 | 0.00 | 0.05 | 0.05 | 52 | 1015.5 |
| 20260906162727 | 94 | 127 | 5.2 | 7.0 | 0.00 | 0.05 | 0.05 | 53 | 1015.7 |
| 20260906162222 | 95 | 122 | 3.5 | 5.2 | 0.00 | 0.05 | 0.05 | 52 | 1015.6 |
| 20260906161716 | 93 | 79 | 3.5 | 5.2 | 0.00 | 0.05 | 0.05 | 53 | 1015.6 |
| 20260906161216 | 94 | 157 | 2.6 | 2.6 | 0.00 | 0.05 | 0.05 | 53 | 1015.5 |
| 20260906160715 | 93 | 123 | 0.9 | 0.9 | 0.00 | 0.05 | 0.05 | 52 | 1015.6 |
| 20260906160214 | 93 | 144 | 5.2 | 6.1 | 0.00 | 0.05 | 0.05 | 55 | 1015.4 |
| 20260906155712 | 93 | 123 | 2.6 | 2.6 | 0.00 | 0.05 | 0.05 | 54 | 1015.6 |
| 20260906155207 | 94 | 128 | 5.2 | 7.0 | 0.00 | 0.05 | 0.05 | 54 | 1015.3 |
| 20260906154703 | 93 | 72 | 0.9 | 0.9 | 0.00 | 0.05 | 0.05 | 55 | 1015.4 |
| 20260906154202 | 93 | 152 | 0.0 | 0.0 | 0.00 | 0.05 | 0.05 | 57 | 1015.3 |
| 20260906153701 | 93 | 179 | 1.7 | 2.6 | 0.00 | 0.05 | 0.05 | 55 | 1015.4 |
| 20260906153155 | 92 | 15 | 0.9 | 1.7 | 0.00 | 0.05 | 0.05 | 57 | 1015.0 |
| 20260906152651 | 91 | 131 | 3.5 | 4.3 | 0.00 | 0.05 | 0.05 | 56 | 1015.1 |
| 20260906152145 | 90 | 132 | 3.5 | 4.3 | 0.00 | 0.05 | 0.05 | 59 | 1015.3 |
| 20260906151639 | 90 | 125 | 0.0 | 0.0 | 0.00 | 0.05 | 0.05 | 61 | 1015.1 |
| 20260906151136 | 90 | 140 | 0.9 | 0.9 | 0.00 | 0.05 | 0.05 | 63 | 1015.1 |
| 20260906150630 | 89 | 161 | 0.9 | 0.9 | 0.00 | 0.05 | 0.05 | 65 | 1015.0 |
| 20260906150126 | 89 | 134 | 0.0 | 0.0 | 0.00 | 0.05 | 0.05 | 64 | 1014.7 |
| 20260906145625 | 89 | 175 | 0.9 | 0.9 | 0.00 | 0.05 | 0.05 | 66 | 1015.0 |
| 20260906145119 | 88 | 137 | 0.0 | 0.0 | 0.00 | 0.05 | 0.05 | 68 | 1014.9 |
| 20260906144614 | 88 | 127 | 0.9 | 1.7 | 0.00 | 0.05 | 0.05 | 68 | 1015.0 |
| 20260906144109 | 87 | 126 | 0.9 | 1.7 | 0.00 | 0.05 | 0.05 | 69 | 1014.9 |
| 20260906143604 | 87 | 28 | 0.0 | 0.9 | 0.00 | 0.05 | 0.05 | 70 | 1015.0 |
| 20260906143100 | 86 | 128 | 1.7 | 1.7 | 0.00 | 0.05 | 0.05 | 70 | 1014.8 |
| 20260906142559 | 86 | 128 | 0.9 | 1.7 | 0.00 | 0.05 | 0.05 | 71 | 1014.9 |
| 20260906142055 | 86 | 159 | 0.0 | 0.0 | 0.00 | 0.05 | 0.05 | 72 | 1015.0 |
| 20260906141554 | 85 | 161 | 0.9 | 1.7 | 0.00 | 0.05 | 0.05 | 73 | 1015.1 |
| 20260906141049 | 85 | 116 | 0.0 | 0.9 | 0.00 | 0.05 | 0.05 | 75 | 1015.0 |
| 20260906140548 | 84 | 88 | 0.0 | 0.0 | 0.00 | 0.05 | 0.05 | 76 | 1015.2 |
| 20260906140043 | 84 | 52 | 0.0 | 0.0 | 0.00 | 0.05 | 0.05 | 78 | 1015.2 |
| 20260906135539 | 83 | 159 | 0.9 | 0.9 | 0.00 | 0.05 | 0.05 | 78 | 1015.2 |
| 20260906135036 | 81 | 130 | 1.7 | 1.7 | 0.00 | 0.05 | 0.05 | 81 | 1015.0 |
| 20260906134531 | 80 | 130 | 0.9 | 1.7 | 0.00 | 0.05 | 0.05 | 83 | 1015.1 |
| 20260906134026 | 80 | 132 | 0.0 | 0.0 | 0.00 | 0.05 | 0.05 | 86 | 1015.1 |
| 20260906133522 | 80 | 157 | 2.6 | 2.6 | 0.00 | 0.05 | 0.05 | 87 | 1015.2 |
| 20260906133017 | 79 | 147 | 1.7 | 2.6 | 0.00 | 0.05 | 0.05 | 88 | 1015.4 |
| 20260906132513 | 79 | 129 | 2.6 | 4.3 | 0.00 | 0.05 | 0.05 | 89 | 1015.2 |
| 20260906132008 | 78 | 132 | 0.0 | 0.0 | 0.00 | 0.05 | 0.05 | 90 | 1015.5 |
| 20260906131503 | 79 | 130 | 0.0 | 0.0 | 0.00 | 0.05 | 0.05 | 88 | 1014.9 |
| 20260906130958 | 78 | 139 | 0.9 | 1.7 | 0.12 | 0.05 | 0.05 | 88 | 1015.1 |
| 20260906130457 | 78 | 130 | 0.0 | 0.9 | 0.17 | 0.05 | 0.05 | 89 | 1015.0 |
| 20260906125952 | 78 | 123 | 0.0 | 0.0 | 0.12 | 0.03 | 0.03 | 88 | 1015.0 |
| 20260906125450 | 79 | 134 | 0.0 | 0.0 | 0.12 | 0.02 | 0.02 | 88 | 1014.8 |
| 20260906124949 | 80 | 147 | 0.0 | 0.0 | 0.05 | 0.01 | 0.01 | 87 | 1014.9 |
| 20260906124444 | 79 | 167 | 0.0 | 0.0 | 0.00 | 0.00 | 0.00 | 85 | 1014.7 |
| 20260906123939 | 78 | 168 | 0.0 | 0.0 | 0.00 | 0.00 | 0.00 | 85 | 1014.8 |
| 20260906123439 | 78 | 168 | 0.0 | 0.0 | 0.00 | 0.00 | 0.00 | 85 | 1015.0 |
| 20260906122933 | 78 | 168 | 0.0 | 0.0 | 0.00 | 0.00 | 0.00 | 85 | 1014.7 |
| 20260906122428 | 78 | 168 | 0.0 | 0.0 | 0.00 | 0.00 | 0.00 | 85 | 1014.7 |
| 20260906121925 | 78 | 168 | 0.0 | 0.0 | 0.00 | 0.00 | 0.00 | 86 | 1014.7 |
| 20260906121421 | 78 | 168 | 0.0 | 0.0 | 0.00 | 0.00 | 0.00 | 85 | 1014.6 |
| 20260906120917 | 78 | 168 | 0.0 | 0.0 | 0.00 | 0.00 | 0.00 | 85 | 1014.4 |
| 20260906120412 | 78 | 168 | 0.0 | 0.0 | 0.00 | 0.00 | 0.00 | 85 | 1014.7 |
| 20260906115908 | 79 | 168 | 0.0 | 0.0 | 0.00 | 0.00 | 0.00 | 84 | 1014.5 |
| 20260906115404 | 79 | 168 | 0.0 | 0.0 | 0.00 | 0.00 | 0.00 | 84 | 1014.5 |
| 20260906114903 | 79 | 168 | 0.0 | 0.0 | 0.00 | 0.00 | 0.00 | 84 | 1014.5 |
| 20260906114357 | 79 | 168 | 0.0 | 0.0 | 0.00 | 0.00 | 0.00 | 83 | 1014.5 |
| 20260906113853 | 79 | 168 | 0.0 | 0.0 | 0.00 | 0.00 | 0.00 | 83 | 1014.5 |
| 20260906113352 | 79 | 168 | 0.0 | 0.0 | 0.00 | 0.00 | 0.00 | 82 | 1014.4 |
| 20260906112847 | 79 | 168 | 0.0 | 0.0 | 0.00 | 0.00 | 0.00 | 82 | 1014.4 |
| 20260906112344 | 79 | 168 | 0.0 | 0.0 | 0.00 | 0.00 | 0.00 | 82 | 1014.3 |
| 20260906111844 | 80 | 168 | 0.0 | 0.0 | 0.00 | 0.00 | 0.00 | 81 | 1014.2 |
| 20260906111343 | 80 | 168 | 0.0 | 0.0 | 0.00 | 0.00 | 0.00 | 81 | 1014.0 |
| 20260906110838 | 80 | 168 | 0.0 | 0.0 | 0.00 | 0.00 | 0.00 | 80 | 1014.0 |
| 20260906110334 | 80 | 168 | 0.0 | 0.0 | 0.00 | 0.00 | 0.00 | 79 | 1014.0 |
| 20260906105833 | 81 | 168 | 0.0 | 0.0 | 0.00 | 0.00 | 0.00 | 79 | 1013.8 |
| 20260906105329 | 81 | 168 | 0.0 | 0.0 | 0.00 | 0.00 | 0.00 | 78 | 1014.0 |
| 20260906104825 | 81 | 168 | 0.9 | 0.9 | 0.00 | 0.00 | 0.00 | 78 | 1013.8 |
| 20260906104323 | 81 | 127 | 0.0 | 0.9 | 0.00 | 0.00 | 0.00 | 78 | 1013.9 |
| 20260906103822 | 81 | 114 | 1.7 | 1.7 | 0.00 | 0.00 | 0.00 | 78 | 1013.8 |
| 20260906103315 | 80 | 172 | 0.0 | 0.9 | 0.00 | 0.00 | 0.00 | 81 | 1014.0 |
| 20260906102811 | 80 | 172 | 0.0 | 0.0 | 0.00 | 0.00 | 0.00 | 81 | 1013.8 |
| 20260906102310 | 80 | 172 | 0.0 | 0.0 | 0.00 | 0.00 | 0.00 | 81 | 1013.7 |
| 20260906101806 | 80 | 172 | 0.0 | 0.0 | 0.00 | 0.00 | 0.00 | 80 | 1013.9 |
| 20260906101306 | 80 | 172 | 0.0 | 0.0 | 0.00 | 0.00 | 0.00 | 80 | 1013.7 |
| 20260906100802 | 80 | 172 | 0.0 | 0.0 | 0.00 | 0.00 | 0.00 | 80 | 1013.7 |
| 20260906100300 | 81 | 172 | 0.0 | 0.0 | 0.00 | 0.00 | 0.00 | 80 | 1013.6 |
| 20260906095756 | 81 | 172 | 0.0 | 0.0 | 0.00 | 0.00 | 0.00 | 79 | 1013.8 |
| 20260906095251 | 81 | 172 | 0.0 | 0.0 | 0.00 | 0.00 | 0.00 | 78 | 1013.7 |
| 20260906094750 | 82 | 172 | 0.0 | 0.0 | 0.00 | 0.00 | 0.00 | 78 | 1013.4 |
| 20260906094245 | 82 | 172 | 0.0 | 0.0 | 0.00 | 0.00 | 0.00 | 77 | 1013.6 |
| 20260906093741 | 82 | 172 | 0.0 | 0.0 | 0.00 | 0.00 | 0.00 | 77 | 1013.8 |
| 20260906093232 | 82 | 172 | 0.0 | 0.0 | 0.00 | 0.00 | 0.00 | 76 | 1013.8 |
| 20260906092727 | 82 | 170 | 0.9 | 1.7 | 0.00 | 0.00 | 0.00 | 76 | 1013.7 |
| 20260906092227 | 82 | 132 | 0.0 | 0.0 | 0.00 | 0.00 | 0.00 | 76 | 1013.7 |
| 20260906091723 | 82 | 135 | 0.0 | 0.9 | 0.00 | 0.00 | 0.00 | 75 | 1013.5 |
| 20260906091219 | 82 | 169 | 0.9 | 0.9 | 0.00 | 0.00 | 0.00 | 75 | 1013.5 |
| 20260906090715 | 82 | 169 | 1.7 | 1.7 | 0.00 | 0.00 | 0.00 | 75 | 1013.3 |
| 20260906090213 | 83 | 238 | 2.6 | 2.6 | 0.00 | 0.00 | 0.00 | 75 | 1013.4 |
| 20260906085713 | 83 | 145 | 0.9 | 0.9 | 0.00 | 0.00 | 0.00 | 74 | 1013.0 |
| 20260906085206 | 83 | 190 | 1.7 | 2.6 | 0.00 | 0.00 | 0.00 | 74 | 1013.2 |
| 20260906084701 | 83 | 188 | 2.6 | 4.3 | 0.00 | 0.00 | 0.00 | 74 | 1013.4 |
| 20260906084200 | 83 | 173 | 1.7 | 2.6 | 0.00 | 0.00 | 0.00 | 74 | 1013.3 |
| 20260906083655 | 83 | 169 | 1.7 | 1.7 | 0.00 | 0.00 | 0.00 | 73 | 1013.4 |
| 20260906083151 | 84 | 179 | 3.5 | 4.3 | 0.00 | 0.00 | 0.00 | 73 | 1013.3 |
| 20260906082646 | 84 | 143 | 1.7 | 1.7 | 0.00 | 0.00 | 0.00 | 73 | 1013.2 |
| 20260906082141 | 84 | 164 | 2.6 | 2.6 | 0.00 | 0.00 | 0.00 | 73 | 1012.9 |
| 20260906081638 | 84 | 168 | 0.9 | 0.9 | 0.00 | 0.00 | 0.00 | 73 | 1013.0 |
| 20260906081132 | 84 | 164 | 0.9 | 1.7 | 0.00 | 0.00 | 0.00 | 72 | 1013.1 |
| 20260906080629 | 84 | 189 | 1.7 | 1.7 | 0.00 | 0.00 | 0.00 | 72 | 1013.2 |
| 20260906080124 | 84 | 154 | 2.6 | 2.6 | 0.00 | 0.00 | 0.00 | 71 | 1013.1 |
| 20260906075618 | 84 | 221 | 2.6 | 2.6 | 0.00 | 0.00 | 0.00 | 71 | 1013.1 |
| 20260906075113 | 84 | 153 | 1.7 | 1.7 | 0.00 | 0.00 | 0.00 | 71 | 1013.3 |
| 20260906074608 | 84 | 176 | 2.6 | 2.6 | 0.00 | 0.00 | 0.00 | 71 | 1013.2 |
| 20260906074107 | 84 | 150 | 1.7 | 1.7 | 0.00 | 0.00 | 0.00 | 71 | 1013.2 |
| 20260906073602 | 84 | 173 | 1.7 | 1.7 | 0.00 | 0.00 | 0.00 | 71 | 1013.3 |
| 20260906073058 | 85 | 165 | 1.7 | 1.7 | 0.00 | 0.00 | 0.00 | 70 | 1013.5 |
| 20260906072558 | 85 | 160 | 1.7 | 1.7 | 0.00 | 0.00 | 0.00 | 70 | 1013.4 |
| 20260906072055 | 84 | 168 | 1.7 | 1.7 | 0.00 | 0.00 | 0.00 | 70 | 1013.7 |
| 20260906071551 | 85 | 169 | 0.9 | 0.9 | 0.00 | 0.00 | 0.00 | 69 | 1013.4 |
| 20260906071045 | 85 | 164 | 0.9 | 0.9 | 0.00 | 0.00 | 0.00 | 69 | 1013.5 |
| 20260906070542 | 85 | 152 | 0.9 | 1.7 | 0.00 | 0.00 | 0.00 | 69 | 1013.6 |
| 20260906070037 | 85 | 141 | 1.7 | 1.7 | 0.00 | 0.00 | 0.00 | 69 | 1013.7 |
| 20260906065536 | 85 | 137 | 1.7 | 1.7 | 0.00 | 0.00 | 0.00 | 68 | 1013.7 |
| 20260906065032 | 85 | 149 | 0.9 | 1.7 | 0.00 | 0.00 | 0.00 | 69 | 1013.6 |
| 20260906064528 | 85 | 143 | 0.9 | 1.7 | 0.00 | 0.00 | 0.00 | 68 | 1013.4 |
| 20260906064022 | 85 | 134 | 1.7 | 1.7 | 0.00 | 0.00 | 0.00 | 68 | 1013.5 |
| 20260906063518 | 85 | 171 | 1.7 | 1.7 | 0.00 | 0.00 | 0.00 | 68 | 1013.6 |
| 20260906063008 | 85 | 170 | 0.9 | 1.7 | 0.00 | 0.00 | 0.00 | 68 | 1013.6 |
| 20260906062502 | 86 | 112 | 1.7 | 1.7 | 0.00 | 0.00 | 0.00 | 67 | 1013.5 |
| 20260906061957 | 85 | 159 | 1.7 | 1.7 | 0.00 | 0.00 | 0.00 | 67 | 1013.5 |
| 20260906061453 | 86 | 116 | 0.9 | 0.9 | 0.00 | 0.00 | 0.00 | 67 | 1013.4 |
| 20260906060947 | 86 | 174 | 0.9 | 0.9 | 0.00 | 0.00 | 0.00 | 66 | 1013.4 |
| 20260906060444 | 86 | 142 | 0.9 | 1.7 | 0.00 | 0.00 | 0.00 | 66 | 1013.3 |
| 20260906055940 | 86 | 144 | 1.7 | 1.7 | 0.00 | 0.00 | 0.00 | 66 | 1013.5 |
| 20260906055431 | 86 | 160 | 0.9 | 1.7 | 0.00 | 0.00 | 0.00 | 65 | 1013.5 |
| 20260906054926 | 86 | 168 | 1.7 | 1.7 | 0.00 | 0.00 | 0.00 | 65 | 1013.6 |
| 20260906054421 | 86 | 159 | 1.7 | 2.6 | 0.00 | 0.00 | 0.00 | 65 | 1013.7 |
| 20260906053917 | 86 | 130 | 2.6 | 2.6 | 0.00 | 0.00 | 0.00 | 65 | 1013.6 |
| 20260906053413 | 86 | 147 | 0.9 | 1.7 | 0.00 | 0.00 | 0.00 | 64 | 1013.6 |
| 20260906052908 | 86 | 151 | 1.7 | 1.7 | 0.00 | 0.00 | 0.00 | 64 | 1013.7 |
| 20260906052404 | 86 | 149 | 1.7 | 1.7 | 0.00 | 0.00 | 0.00 | 64 | 1013.9 |
| 20260906051901 | 87 | 175 | 1.7 | 1.7 | 0.00 | 0.00 | 0.00 | 63 | 1013.9 |
| 20260906051401 | 87 | 163 | 0.9 | 1.7 | 0.00 | 0.00 | 0.00 | 63 | 1013.7 |
| 20260906050856 | 86 | 149 | 1.7 | 1.7 | 0.00 | 0.00 | 0.00 | 63 | 1014.0 |
| 20260906050350 | 87 | 140 | 0.0 | 0.9 | 0.00 | 0.00 | 0.00 | 63 | 1013.7 |
| 20260906045849 | 87 | 152 | 1.7 | 1.7 | 0.00 | 0.00 | 0.00 | 62 | 1013.8 |
| 20260906045344 | 87 | 173 | 0.9 | 0.9 | 0.00 | 0.00 | 0.00 | 62 | 1013.6 |
| 20260906044840 | 87 | 166 | 1.7 | 1.7 | 0.00 | 0.00 | 0.00 | 61 | 1013.7 |
| 20260906044335 | 87 | 69 | 2.6 | 2.6 | 0.00 | 0.00 | 0.00 | 61 | 1013.5 |
| 20260906043831 | 87 | 156 | 1.7 | 1.7 | 0.00 | 0.00 | 0.00 | 61 | 1013.6 |
| 20260906043327 | 87 | 174 | 0.9 | 1.7 | 0.00 | 0.00 | 0.00 | 61 | 1013.6 |
| 20260906042826 | 87 | 134 | 0.9 | 1.7 | 0.00 | 0.00 | 0.00 | 61 | 1013.5 |
| 20260906042320 | 88 | 175 | 1.7 | 1.7 | 0.00 | 0.00 | 0.00 | 60 | 1013.8 |
| 20260906041816 | 88 | 174 | 1.7 | 1.7 | 0.00 | 0.00 | 0.00 | 60 | 1013.6 |
| 20260906041311 | 88 | 144 | 2.6 | 2.6 | 0.00 | 0.00 | 0.00 | 60 | 1013.7 |
| 20260906040806 | 88 | 152 | 1.7 | 2.6 | 0.00 | 0.00 | 0.00 | 60 | 1013.5 |
| 20260906040301 | 88 | 135 | 1.7 | 1.7 | 0.00 | 0.00 | 0.00 | 60 | 1013.3 |
| 20260906035756 | 88 | 166 | 1.7 | 1.7 | 0.00 | 0.00 | 0.00 | 59 | 1013.6 |
| 20260906035251 | 88 | 157 | 0.9 | 1.7 | 0.00 | 0.00 | 0.00 | 59 | 1013.9 |
| 20260906034746 | 89 | 151 | 0.9 | 1.7 | 0.00 | 0.00 | 0.00 | 59 | 1013.6 |
| 20260906034241 | 89 | 138 | 1.7 | 1.7 | 0.00 | 0.00 | 0.00 | 58 | 1013.4 |
| 20260906033737 | 89 | 173 | 1.7 | 2.6 | 0.00 | 0.00 | 0.00 | 58 | 1013.4 |
| 20260906033236 | 89 | 161 | 2.6 | 2.6 | 0.00 | 0.00 | 0.00 | 58 | 1013.8 |
| 20260906032733 | 89 | 152 | 3.5 | 5.2 | 0.00 | 0.00 | 0.00 | 58 | 1013.7 |
| 20260906032232 | 89 | 142 | 4.3 | 6.1 | 0.00 | 0.00 | 0.00 | 58 | 1013.6 |
| 20260906031727 | 89 | 147 | 3.5 | 4.3 | 0.00 | 0.00 | 0.00 | 57 | 1013.7 |
| 20260906031223 | 89 | 168 | 4.3 | 4.3 | 0.00 | 0.00 | 0.00 | 57 | 1013.9 |
| 20260906030723 | 89 | 124 | 5.2 | 7.0 | 0.00 | 0.00 | 0.00 | 58 | 1013.6 |
| 20260906030218 | 89 | 119 | 3.5 | 5.2 | 0.00 | 0.00 | 0.00 | 58 | 1013.6 |
| 20260906025718 | 90 | 153 | 3.5 | 5.2 | 0.00 | 0.00 | 0.00 | 58 | 1013.4 |
| 20260906025212 | 90 | 123 | 5.2 | 6.1 | 0.00 | 0.00 | 0.00 | 58 | 1013.5 |
| 20260906024711 | 90 | 136 | 3.5 | 5.2 | 0.00 | 0.00 | 0.00 | 57 | 1013.6 |
| 20260906024211 | 90 | 189 | 3.5 | 4.3 | 0.00 | 0.00 | 0.00 | 57 | 1013.3 |
| 20260906023707 | 91 | 165 | 3.5 | 5.2 | 0.00 | 0.00 | 0.00 | 56 | 1013.5 |
| 20260906023207 | 91 | 164 | 2.6 | 2.6 | 0.00 | 0.00 | 0.00 | 55 | 1013.1 |
| 20260906022702 | 92 | 178 | 2.6 | 4.3 | 0.00 | 0.00 | 0.00 | 53 | 1012.9 |
| 20260906022157 | 92 | 166 | 6.1 | 7.0 | 0.00 | 0.00 | 0.00 | 53 | 1012.8 |
| 20260906021653 | 92 | 125 | 8.7 | 11.3 | 0.00 | 0.00 | 0.00 | 53 | 1012.9 |
| 20260906021151 | 93 | 146 | 5.2 | 7.8 | 0.00 | 0.00 | 0.00 | 52 | 1012.8 |
| 20260906020641 | 93 | 135 | 4.3 | 6.1 | 0.00 | 0.00 | 0.00 | 51 | 1012.9 |
| 20260906020136 | 93 | 133 | 5.2 | 7.0 | 0.00 | 0.00 | 0.00 | 50 | 1012.7 |
| 20260906015636 | 93 | 138 | 2.6 | 4.3 | 0.00 | 0.00 | 0.00 | 49 | 1012.6 |
| 20260906015134 | 93 | 116 | 0.9 | 0.9 | 0.00 | 0.00 | 0.00 | 49 | 1012.3 |
| 20260906014628 | 94 | 102 | 0.9 | 0.9 | 0.00 | 0.00 | 0.00 | 49 | 1012.5 |
| 20260906014125 | 94 | 133 | 1.7 | 2.6 | 0.00 | 0.00 | 0.00 | 49 | 1012.1 |
| 20260906013620 | 94 | 119 | 2.6 | 2.6 | 0.00 | 0.00 | 0.00 | 48 | 1012.3 |
| 20260906013115 | 94 | 95 | 0.0 | 0.9 | 0.00 | 0.00 | 0.00 | 47 | 1012.2 |
| 20260906012610 | 94 | 115 | 0.9 | 0.9 | 0.00 | 0.00 | 0.00 | 46 | 1012.2 |
| 20260906012105 | 94 | 93 | 0.0 | 0.0 | 0.00 | 0.00 | 0.00 | 45 | 1012.1 |
| 20260906011601 | 94 | 138 | 2.6 | 2.6 | 0.00 | 0.00 | 0.00 | 44 | 1011.9 |
| 20260906011100 | 94 | 122 | 0.9 | 1.7 | 0.00 | 0.00 | 0.00 | 44 | 1011.9 |
| 20260906010556 | 94 | 109 | 0.0 | 0.0 | 0.00 | 0.00 | 0.00 | 45 | 1011.8 |
| 20260906010052 | 95 | 106 | 0.0 | 0.0 | 0.00 | 0.00 | 0.00 | 46 | 1011.8 |
| 20260906005551 | 95 | 107 | 0.0 | 0.0 | 0.00 | 0.00 | 0.00 | 43 | 1011.9 |
| 20260906005050 | 95 | 113 | 1.7 | 2.6 | 0.00 | 0.00 | 0.00 | 42 | 1012.0 |
| 20260906004544 | 96 | 149 | 1.7 | 1.7 | 0.00 | 0.00 | 0.00 | 43 | 1011.6 |
| 20260906004039 | 96 | 127 | 3.5 | 4.3 | 0.00 | 0.00 | 0.00 | 42 | 1011.8 |
| 20260906003534 | 96 | 95 | 0.0 | 0.0 | 0.00 | 0.00 | 0.00 | 42 | 1011.9 |
| 20260906003030 | 96 | 130 | 1.7 | 2.6 | 0.00 | 0.00 | 0.00 | 42 | 1011.7 |
| 20260906002525 | 96 | 119 | 0.9 | 0.9 | 0.00 | 0.00 | 0.00 | 42 | 1011.8 |
| 20260906002020 | 96 | 133 | 0.9 | 2.6 | 0.00 | 0.00 | 0.00 | 42 | 1011.9 |
| 20260906001515 | 96 | 166 | 4.3 | 5.2 | 0.00 | 0.00 | 0.00 | 42 | 1011.9 |
| 20260906001010 | 96 | 123 | 1.7 | 2.6 | 0.00 | 0.00 | 0.00 | 42 | 1011.7 |
| 20260906000506 | 96 | 126 | 2.6 | 4.3 | 0.00 | 0.00 | 0.00 | 42 | 1012.1 |
| 20260906000006 | 97 | 128 | 1.7 | 1.7 | 0.00 | 0.00 | 0.00 | 42 | 1011.8 |
| 20260905235459 | 97 | 126 | 0.9 | 0.9 | 0.00 | 0.00 | 0.00 | 42 | 1011.6 |
| 20260905234954 | 97 | 159 | 0.9 | 2.6 | 0.00 | 0.00 | 0.00 | 42 | 1011.8 |
| 20260905234445 | 97 | 71 | 0.0 | 0.0 | 0.00 | 0.00 | 0.00 | 42 | 1011.5 |
| 20260905233944 | 98 | 117 | 0.0 | 0.0 | 0.00 | 0.00 | 0.00 | 42 | 1011.8 |
| 20260905233440 | 98 | 125 | 1.7 | 1.7 | 0.00 | 0.00 | 0.00 | 41 | 1011.8 |
| 20260905232938 | 97 | 146 | 0.0 | 0.9 | 0.00 | 0.00 | 0.00 | 42 | 1011.4 |
| 20260905231930 | 98 | 91 | 0.9 | 1.7 | 0.00 | 0.00 | 0.00 | 40 | 1011.8 |
| 20260905231426 | 98 | 167 | 1.7 | 4.3 | 0.00 | 0.00 | 0.00 | 40 | 1011.7 |
| 20260905230922 | 98 | 130 | 4.3 | 6.1 | 0.00 | 0.00 | 0.00 | 40 | 1011.5 |
| 20260905230420 | 99 | 129 | 0.9 | 1.7 | 0.00 | 0.00 | 0.00 | 40 | 1011.7 |
| 20260905225919 | 98 | 120 | 2.6 | 2.6 | 0.00 | 0.00 | 0.00 | 40 | 1011.9 |
| 20260905225414 | 99 | 152 | 4.3 | 6.1 | 0.00 | 0.00 | 0.00 | 41 | 1011.9 |
| 20260905224909 | 99 | 124 | 1.7 | 2.6 | 0.00 | 0.00 | 0.00 | 40 | 1011.6 |
| 20260905224405 | 99 | 185 | 1.7 | 2.6 | 0.00 | 0.00 | 0.00 | 40 | 1011.8 |
| 20260905223859 | 99 | 137 | 4.3 | 5.2 | 0.00 | 0.00 | 0.00 | 40 | 1011.5 |
| 20260905223357 | 100 | 135 | 0.9 | 2.6 | 0.00 | 0.00 | 0.00 | 39 | 1011.6 |
| 20260905222851 | 99 | 129 | 0.0 | 0.9 | 0.00 | 0.00 | 0.00 | 40 | 1011.7 |
| 20260905222350 | 100 | 152 | 2.6 | 4.3 | 0.00 | 0.00 | 0.00 | 39 | 1011.7 |
| 20260905221847 | 100 | 126 | 3.5 | 5.2 | 0.00 | 0.00 | 0.00 | 39 | 1011.6 |
| 20260905221343 | 99 | 154 | 0.9 | 1.7 | 0.00 | 0.00 | 0.00 | 40 | 1011.9 |